Time;durP1;ratioP1;P1;durP2;ratioP2;P2;SDS_P1;SDS_P2;PMS_P1;PMS_P2;Temp;Humidity;BMP_temperature;BMP_pressure;BME280_temperature;BME280_humidity;BME280_pressure;Samples;Min_cycle;Max_cycle;Signal;HPM_P1;HPM_P2
2023/06/14 00:02:41;;;;;;;5.70;3.50;;;;;;;14.66;74.61;98835.20;102667;1295;600930;-22
2023/06/14 00:05:09;;;;;;;4.80;4.20;;;;;;;14.31;74.62;98840.73;104822;1270;61231;-22
2023/06/14 00:14:16;;;;;;;9.00;4.20;;;;;;;13.72;77.85;98842.54;102641;1292;599448;-22
2023/06/14 00:16:43;;;;;;;7.20;2.70;;;;;;;13.65;78.52;98835.79;104826;1267;61120;-22
2023/06/14 00:19:11;;;;;;;8.20;3.00;;;;;;;14.21;78.10;98833.04;104818;1266;61184;-22
2023/06/14 00:21:39;;;;;;;7.70;3.00;;;;;;;14.81;75.61;98830.01;104816;1266;71201;-22
2023/06/14 00:24:07;;;;;;;10.40;3.10;;;;;;;14.77;74.05;98829.73;104675;1267;74335;-22
2023/06/14 00:26:35;;;;;;;6.60;3.40;;;;;;;14.68;74.34;98831.88;104868;1267;72697;-22
2023/06/14 00:29:03;;;;;;;4.40;3.20;;;;;;;14.50;74.81;98841.93;103179;1267;2435919;-22
2023/06/14 00:31:31;;;;;;;7.80;4.10;;;;;;;14.26;75.25;98839.52;105237;1263;61154;-22
2023/06/14 00:41:41;;;;;;;11.10;4.60;;;;;;;15.16;75.17;98843.17;102670;1292;600165;-22
2023/06/14 00:44:09;;;;;;;8.60;3.90;;;;;;;15.32;73.92;98836.89;105017;1265;61381;-22
2023/06/14 00:46:37;;;;;;;8.60;4.50;;;;;;;15.15;72.97;98836.14;104899;1266;61109;-22
2023/06/14 00:49:06;;;;;;;8.70;4.50;;;;;;;14.88;73.63;98836.83;104829;1267;72263;-23
2023/06/14 00:51:33;;;;;;;9.20;4.60;;;;;;;14.65;73.78;98837.36;104853;1271;73953;-22
2023/06/14 00:54:01;;;;;;;5.40;4.20;;;;;;;14.45;74.98;98837.84;104681;1267;72721;-22
2023/06/14 00:56:29;;;;;;;6.20;4.10;;;;;;;14.22;75.35;98835.21;102970;1264;2515917;-22
2023/06/14 00:58:56;;;;;;;7.40;3.30;;;;;;;14.06;75.97;98838.16;105552;1263;61105;-22
2023/06/14 01:01:25;;;;;;;4.10;3.30;;;;;;;14.52;75.95;98843.05;105303;1265;72221;-22
2023/06/14 01:03:52;;;;;;;4.40;3.00;;;;;;;15.07;74.42;98838.91;105528;1257;74299;-22
2023/06/14 01:06:29;;;;;;;9.20;3.70;;;;;;;15.14;73.13;98836.45;105490;1257;71764;-22
2023/06/14 01:09:03;;;;;;;6.70;3.80;;;;;;;14.92;73.37;98834.10;105184;1260;61046;-22
2023/06/14 01:11:57;;;;;;;7.30;4.20;;;;;;;14.74;74.52;98834.23;105108;1264;61188;-22
2023/06/14 01:14:25;;;;;;;7.70;4.50;;;;;;;14.54;75.46;98833.20;105214;1257;73036;-22
2023/06/14 01:16:53;;;;;;;7.20;4.80;;;;;;;14.38;76.00;98832.06;105150;1257;74316;-22
2023/06/14 01:19:22;;;;;;;10.00;3.10;;;;;;;14.24;76.70;98830.51;105191;1260;72648;-24
2023/06/14 01:29:32;;;;;;;9.60;3.10;;;;;;;15.16;75.01;98836.39;102848;1290;600102;-22
2023/06/14 01:32:00;;;;;;;6.60;3.50;;;;;;;14.93;75.34;98835.14;104831;1267;61082;-22
2023/06/14 01:34:31;;;;;;;4.80;3.70;;;;;;;14.71;75.54;98832.78;104812;1267;61079;-22
2023/06/14 01:37:00;;;;;;;4.20;3.10;;;;;;;14.50;75.82;98830.17;104896;1270;72167;-23
2023/06/14 01:39:27;;;;;;;3.40;2.10;;;;;;;14.29;76.48;98827.73;104793;1267;74337;-22
2023/06/14 01:41:57;;;;;;;5.20;2.70;;;;;;;14.64;76.41;98827.34;103072;1272;2665562;-23
2023/06/14 01:44:25;;;;;;;2.80;2.40;;;;;;;15.03;74.86;98827.96;104869;1270;61176;-22
2023/06/14 01:46:52;;;;;;;4.60;2.80;;;;;;;15.00;74.67;98830.13;104856;1269;61196;-23
2023/06/14 01:49:23;;;;;;;5.30;2.90;;;;;;;14.84;74.82;98829.02;105068;1263;72238;-23
2023/06/14 01:51:50;;;;;;;6.00;3.00;;;;;;;14.61;75.93;98830.45;105149;1263;74265;-23
2023/06/14 01:54:18;;;;;;;5.80;3.60;;;;;;;14.32;76.09;98828.40;104991;1264;72649;-23
2023/06/14 01:56:46;;;;;;;8.30;3.70;;;;;;;14.09;76.98;98835.92;104800;1264;61172;-23
2023/06/14 01:59:14;;;;;;;4.00;2.20;;;;;;;13.94;77.75;98838.78;104822;1264;61007;-23
2023/06/14 02:01:41;;;;;;;4.60;2.20;;;;;;;14.36;78.02;98837.65;104787;1264;73024;-23
2023/06/14 02:11:47;;;;;;;3.90;3.10;;;;;;;14.53;74.95;98839.27;102664;1290;600204;-22
2023/06/14 02:14:16;;;;;;;4.50;3.60;;;;;;;14.27;75.55;98839.30;104862;1267;61168;-22
2023/06/14 02:16:49;;;;;;;6.90;3.60;;;;;;;14.07;76.12;98847.00;104805;1271;61113;-22
2023/06/14 02:19:17;;;;;;;6.20;3.60;;;;;;;13.88;76.60;98850.43;104764;1275;72235;-22
2023/06/14 02:21:45;;;;;;;4.50;2.30;;;;;;;13.71;77.91;98848.91;104787;1272;74316;-22
2023/06/14 02:24:15;;;;;;;4.70;2.10;;;;;;;14.06;77.44;98846.72;104487;1270;2765797;-23
2023/06/14 02:26:42;;;;;;;6.40;4.80;;;;;;;14.41;75.46;98839.78;104873;1267;61251;-22
2023/06/14 02:36:53;;;;;;;17.80;8.20;;;;;;;13.99;75.84;98840.59;102677;1289;600116;-22
2023/06/14 02:39:23;;;;;;;17.60;8.70;;;;;;;13.81;76.94;98841.14;104848;1265;61190;-22
2023/06/14 02:41:50;;;;;;;16.60;9.00;;;;;;;13.69;77.37;98841.60;104851;1268;61124;-22
2023/06/14 02:51:56;;;;;;;9.50;6.40;;;;;;;14.65;74.09;98835.13;102705;1292;599956;-22
2023/06/14 03:02:05;;;;;;;16.60;9.30;;;;;;;13.87;76.85;98841.98;102676;1293;600169;-22
2023/06/14 03:04:36;;;;;;;13.70;10.00;;;;;;;13.71;77.51;98847.90;104861;1270;61158;-22
2023/06/14 03:07:10;;;;;;;10.80;6.70;;;;;;;13.63;78.20;98847.11;104837;1264;61705;-22
2023/06/14 03:09:39;;;;;;;13.50;9.30;;;;;;;14.21;77.16;98849.95;104866;1267;71000;-22
2023/06/14 03:12:09;;;;;;;13.00;10.00;;;;;;;14.81;74.86;98843.66;104878;1270;73274;-22
2023/06/14 03:14:38;;;;;;;13.70;9.30;;;;;;;14.82;73.99;98842.34;102904;1269;2576350;-22
2023/06/14 03:17:08;;;;;;;10.90;7.60;;;;;;;14.65;74.77;98841.91;104847;1271;61253;-22
2023/06/14 03:27:16;;;;;;;10.60;8.20;;;;;;;13.82;77.35;98842.23;102714;1289;600204;-22
2023/06/14 03:37:26;;;;;;;9.00;6.40;;;;;;;14.90;74.25;98849.75;102664;1292;600479;-22
2023/06/14 03:39:54;;;;;;;10.80;6.30;;;;;;;14.73;73.93;98850.09;104868;1267;61140;-23
2023/06/14 03:50:00;;;;;;;10.80;5.00;;;;;;;14.24;75.83;98855.97;102532;1292;600192;-24
2023/06/14 03:52:28;;;;;;;6.10;3.00;;;;;;;14.19;76.26;98858.34;104837;1269;61212;-22
2023/06/14 03:54:56;;;;;;;5.90;3.10;;;;;;;14.66;75.21;98854.27;104768;1267;61084;-22
2023/06/14 03:57:44;;;;;;;6.40;3.50;;;;;;;15.31;72.93;98860.95;104757;1271;71003;-22
2023/06/14 04:07:50;;;;;;;5.50;3.30;;;;;;;15.05;72.78;98860.09;102655;1295;599436;-22
2023/06/14 04:10:20;;;;;;;4.40;3.70;;;;;;;14.91;73.02;98857.48;104881;1271;61235;-22
2023/06/14 04:20:27;;;;;;;6.40;3.70;;;;;;;14.50;74.47;98860.89;102553;1293;600187;-22
2023/06/14 04:22:57;;;;;;;3.40;2.60;;;;;;;15.14;74.01;98858.11;105340;1263;61238;-22
2023/06/14 04:25:26;;;;;;;4.40;3.30;;;;;;;15.73;72.30;98856.69;105325;1260;61136;-22
2023/06/14 04:27:55;;;;;;;4.40;3.10;;;;;;;15.79;71.32;98858.20;105591;1261;70956;-24
2023/06/14 04:30:26;;;;;;;6.00;4.20;;;;;;;15.65;70.42;98858.25;105525;1260;72712;-22
2023/06/14 04:32:55;;;;;;;4.70;3.40;;;;;;;15.48;70.86;98856.89;103470;1260;2693529;-25
2023/06/14 04:35:25;;;;;;;6.40;4.70;;;;;;;15.37;71.41;98856.80;105242;1258;61153;-24
2023/06/14 04:37:54;;;;;;;6.20;4.40;;;;;;;15.29;71.38;98863.51;105477;1257;61152;-24
2023/06/14 04:40:23;;;;;;;7.60;4.60;;;;;;;15.18;71.20;98866.25;105544;1256;70978;-24
2023/06/14 04:49:40;;;;;;;4.70;2.70;;;;;;;16.05;69.47;98863.02;102659;1292;601009;-22
2023/06/14 04:59:54;;;;;;;4.80;3.10;;;;;;;16.26;67.37;98867.88;102695;1293;599995;-22
2023/06/14 05:02:25;;;;;;;6.40;3.00;;;;;;;16.06;67.31;98868.64;104924;1266;61126;-22
2023/06/14 05:04:56;;;;;;;6.80;3.80;;;;;;;15.98;67.27;98869.88;105626;1254;61056;-24
2023/06/14 05:15:01;;;;;;;10.20;7.30;;;;;;;15.78;68.68;98871.03;102670;1295;599450;-22
2023/06/14 05:17:29;;;;;;;6.40;5.20;;;;;;;15.70;68.21;98870.61;105036;1265;61164;-22
2023/06/14 05:27:35;;;;;;;10.90;4.90;;;;;;;15.55;68.94;98865.74;102655;1292;600139;-22
2023/06/14 05:37:47;;;;;;;11.80;7.60;;;;;;;17.51;64.00;98862.47;102694;1293;600036;-22
2023/06/14 05:40:16;;;;;;;5.30;4.10;;;;;;;17.56;63.72;98866.31;104910;1266;61231;-22
2023/06/14 05:42:45;;;;;;;14.20;8.70;;;;;;;17.67;63.28;98870.27;104877;1264;61388;-23
2023/06/14 05:52:57;;;;;;;13.90;7.70;;;;;;;17.60;62.99;98861.11;102610;1295;600135;-22
2023/06/14 05:55:25;;;;;;;12.90;6.80;;;;;;;17.79;61.90;98862.23;104829;1272;61132;-22
2023/06/14 06:04:47;;;;;;;9.00;4.00;;;;;;;18.08;59.92;98864.38;103114;1286;600616;-22
2023/06/14 06:13:59;;;;;;;5.10;3.00;;;;;;;19.15;57.06;98869.48;102618;1291;600173;-22
2023/06/14 06:16:27;;;;;;;5.00;3.00;;;;;;;19.20;55.55;98869.25;105551;1259;61063;-22
2023/06/14 06:18:54;;;;;;;5.70;2.80;;;;;;;19.54;56.26;98869.60;105513;1262;61117;-24
2023/06/14 06:21:22;;;;;;;3.80;2.60;;;;;;;19.81;55.48;98865.93;105597;1260;71069;-22
2023/06/14 06:23:50;;;;;;;6.20;2.60;;;;;;;19.85;54.90;98864.63;105388;1260;74301;-22
2023/06/14 06:26:17;;;;;;;7.40;2.60;;;;;;;19.90;55.35;98868.81;105547;1257;72628;-22
2023/06/14 06:28:45;;;;;;;7.70;3.90;;;;;;;19.91;53.18;98863.46;103753;1256;2538552;-22
2023/06/14 06:31:13;;;;;;;2.70;2.20;;;;;;;19.96;52.31;98863.99;105571;1256;61045;-22
2023/06/14 06:33:40;;;;;;;6.10;2.80;;;;;;;20.05;51.19;98861.30;105347;1256;70128;-22
2023/06/14 06:36:08;;;;;;;5.80;2.30;;;;;;;19.97;51.05;98859.13;105314;1257;73090;-22
2023/06/14 06:38:39;;;;;;;5.00;3.00;;;;;;;20.04;51.98;98860.77;105447;1257;71385;-22
2023/06/14 06:41:06;;;;;;;4.60;2.70;;;;;;;20.19;52.62;98862.20;105641;1255;60988;-22
2023/06/14 06:43:34;;;;;;;6.60;2.70;;;;;;;20.21;51.79;98861.98;105542;1257;61174;-22
2023/06/14 06:46:02;;;;;;;5.50;2.70;;;;;;;19.53;50.59;98862.20;105669;1260;71777;-22
2023/06/14 06:48:30;;;;;;;17.90;9.30;;;;;;;19.28;51.98;98866.04;105450;1257;74273;-22
2023/06/14 06:50:57;;;;;;;6.70;3.70;;;;;;;19.53;53.74;98865.81;105546;1260;70645;-22
2023/06/14 06:53:25;;;;;;;4.00;2.70;;;;;;;20.04;52.70;98868.41;105599;1256;61131;-24
2023/06/14 06:56:06;;;;;;;7.50;2.40;;;;;;;19.85;50.73;98869.87;105569;1262;61109;-22
2023/06/14 07:06:18;;;;;;;10.90;7.00;;;;;;;20.33;52.44;98876.10;102655;1292;600111;-24
2023/06/14 07:08:49;;;;;;;9.00;5.40;;;;;;;20.04;51.38;98871.98;104857;1269;61176;-22
2023/06/14 07:11:17;;;;;;;6.70;4.00;;;;;;;19.83;51.64;98872.90;104880;1270;61114;-23
2023/06/14 07:13:45;;;;;;;10.60;5.50;;;;;;;19.31;52.30;98869.31;104820;1270;70950;-22
2023/06/14 07:23:54;;;;;;;5.60;2.70;;;;;;;20.25;51.98;98866.91;102659;1293;599448;-23
2023/06/14 07:26:22;;;;;;;4.80;2.40;;;;;;;19.40;52.21;98865.52;104833;1267;61123;-23
2023/06/14 07:35:48;;;;;;;4.60;2.40;;;;;;;19.30;53.18;98871.75;102618;1295;600312;-22
2023/06/14 07:45:55;;;;;;;6.60;1.90;;;;;;;20.72;50.63;98868.13;102620;1292;600217;-22
2023/06/14 07:48:34;;;;;;;10.60;4.10;;;;;;;20.98;51.34;98865.34;104857;1267;61168;-22
2023/06/14 07:57:50;;;;;;;5.90;3.90;;;;;;;20.72;51.30;98861.79;102565;1292;600012;-23
2023/06/14 08:00:20;;;;;;;8.90;5.70;;;;;;;20.21;50.89;98863.29;104835;1271;61100;-23
2023/06/14 08:02:47;;;;;;;10.30;4.60;;;;;;;20.74;50.21;98861.10;104792;1272;61126;-23
2023/06/14 08:05:15;;;;;;;4.00;2.60;;;;;;;21.06;48.87;98855.30;104773;1272;72207;-24
2023/06/14 08:07:44;;;;;;;4.70;2.30;;;;;;;21.31;48.92;98854.77;104807;1272;74400;-23
2023/06/14 08:10:11;;;;;;;4.30;2.20;;;;;;;21.79;48.58;98852.42;104833;1268;71769;-22
2023/06/14 08:12:39;;;;;;;2.30;1.90;;;;;;;22.28;47.13;98850.98;102853;1270;2801361;-23
2023/06/14 08:22:47;;;;;;;5.30;4.00;;;;;;;21.24;51.04;98857.64;102731;1293;599875;-22
2023/06/14 08:25:15;;;;;;;7.90;2.80;;;;;;;21.20;50.26;98858.41;104890;1267;61199;-22
2023/06/14 08:27:44;;;;;;;5.70;2.90;;;;;;;20.71;50.72;98866.17;105678;1254;61071;-22
2023/06/14 08:37:52;;;;;;;4.60;2.20;;;;;;;21.42;49.55;98854.27;102995;1286;600685;-22
2023/06/14 08:40:21;;;;;;;6.70;2.00;;;;;;;22.00;47.81;98853.45;105061;1269;61120;-21
2023/06/14 08:42:53;;;;;;;3.60;2.30;;;;;;;22.70;46.90;98851.16;104823;1267;61065;-22
2023/06/14 08:45:21;;;;;;;5.80;2.50;;;;;;;23.23;45.76;98857.64;104830;1267;71425;-22
2023/06/14 08:55:39;;;;;;;4.70;1.90;;;;;;;23.39;44.46;98850.90;102702;1292;600304;-23
2023/06/14 08:58:14;;;;;;;4.20;2.60;;;;;;;23.50;42.30;98853.59;104776;1273;61264;-22
2023/06/14 09:00:44;;;;;;;11.00;6.60;;;;;;;23.22;43.77;98858.34;104845;1266;61086;-22
2023/06/14 09:03:15;;;;;;;8.10;3.30;;;;;;;23.53;45.26;98855.80;105067;1269;72211;-23
2023/06/14 09:05:43;;;;;;;7.60;5.40;;;;;;;22.77;44.04;98857.28;104842;1272;73214;-22
2023/06/14 09:15:53;;;;;;;5.10;2.70;;;;;;;22.72;45.13;98861.10;102703;1290;615241;-22
2023/06/14 09:18:21;;;;;;;6.50;3.80;;;;;;;22.70;46.32;98863.35;105183;1264;61062;-23
2023/06/14 09:20:48;;;;;;;5.10;3.10;;;;;;;22.66;44.38;98863.77;104889;1270;61091;-23
2023/06/14 09:23:21;;;;;;;2.80;2.10;;;;;;;22.62;46.28;98864.00;104812;1264;72816;-23
2023/06/14 09:25:48;;;;;;;5.60;2.00;;;;;;;22.57;47.07;98863.27;104843;1273;74245;-23
2023/06/14 09:28:16;;;;;;;3.10;1.90;;;;;;;22.34;47.64;98862.92;103664;1260;2707977;-23
2023/06/14 09:30:43;;;;;;;4.60;2.60;;;;;;;21.42;47.55;98863.23;105399;1257;61148;-23
2023/06/14 09:33:10;;;;;;;9.30;4.00;;;;;;;21.09;49.81;98867.13;105653;1260;61268;-23
2023/06/14 09:35:38;;;;;;;2.80;1.90;;;;;;;21.18;49.09;98866.34;105646;1258;72159;-22
2023/06/14 09:38:06;;;;;;;3.70;2.20;;;;;;;21.31;49.27;98862.59;105616;1263;74207;-22
2023/06/14 09:40:36;;;;;;;4.10;2.40;;;;;;;21.02;48.94;98865.67;105632;1257;72662;-23
2023/06/14 09:43:09;;;;;;;3.30;2.10;;;;;;;21.29;50.32;98865.60;105616;1261;61151;-23
2023/06/14 09:45:39;;;;;;;;;;;;;;;21.44;49.22;98863.43;105696;1260;61179;-23
2023/06/14 09:48:07;;;;;;;32.60;12.40;;;;;;;20.96;49.95;98867.64;105656;1260;72928;-23
2023/06/14 09:50:35;;;;;;;4.60;3.20;;;;;;;20.94;49.33;98864.10;105511;1263;73328;-23
2023/06/14 09:53:07;;;;;;;2.90;2.30;;;;;;;20.85;49.24;98861.01;105524;1257;72310;-24
2023/06/14 09:55:36;;;;;;;3.30;2.20;;;;;;;21.29;49.72;98858.92;105220;1261;61196;-22
2023/06/14 09:58:07;;;;;;;5.40;2.00;;;;;;;21.48;49.41;98857.66;105392;1258;61169;-22
2023/06/14 10:00:36;;;;;;;9.80;2.20;;;;;;;21.37;49.37;98861.23;105327;1258;73081;-23
2023/06/14 10:03:14;;;;;;;14.50;3.00;;;;;;;21.44;50.67;98860.34;105595;1262;73278;-22
2023/06/14 10:05:45;;;;;;;5.50;2.20;;;;;;;21.47;49.41;98859.30;105393;1258;73174;-23
2023/06/14 10:08:17;;;;;;;3.20;1.80;;;;;;;21.60;48.79;98861.24;105299;1259;61094;-24
2023/06/14 10:10:44;;;;;;;3.00;1.70;;;;;;;21.76;48.76;98858.02;105574;1262;61233;-23
2023/06/14 10:13:12;;;;;;;2.80;1.70;;;;;;;21.89;49.28;98852.80;105579;1261;73400;-23
2023/06/14 10:16:00;;;;;;;5.90;3.40;;;;;;;21.48;48.04;98855.55;105551;1262;74375;-23
2023/06/14 10:18:48;;;;;;;2.80;2.10;;;;;;;22.22;47.75;98849.91;105515;1257;72640;-23
2023/06/14 10:21:23;;;;;;;4.10;1.80;;;;;;;22.15;47.79;98851.64;105549;1263;61145;-23
2023/06/14 10:23:51;;;;;;;17.60;10.40;;;;;;;22.60;46.13;98851.84;105367;1262;61105;-23
2023/06/14 10:26:23;;;;;;;6.30;1.80;;;;;;;22.60;46.45;98850.98;105562;1264;70674;-23
2023/06/14 10:29:01;;;;;;;4.80;1.70;;;;;;;23.40;44.85;98854.27;105381;1263;74637;-23
2023/06/14 10:31:59;;;;;;;3.30;1.80;;;;;;;23.86;44.11;98852.86;105237;1265;72562;-23
2023/06/14 10:34:27;;;;;;;5.30;1.70;;;;;;;23.60;43.50;98853.74;105381;1256;61129;-23
2023/06/14 10:37:10;;;;;;;4.60;1.80;;;;;;;24.17;43.52;98851.50;105382;1257;61718;-23
2023/06/14 10:39:42;;;;;;;2.80;1.80;;;;;;;24.33;43.62;98849.96;105629;1258;73065;-23
2023/06/14 10:42:09;;;;;;;4.20;2.40;;;;;;;25.17;41.78;98849.30;105274;1266;74141;-22
2023/06/14 10:44:51;;;;;;;5.00;2.50;;;;;;;25.11;41.99;98850.41;105279;1258;72576;-22
2023/06/14 10:47:28;;;;;;;6.60;2.00;;;;;;;25.05;41.77;98849.48;105370;1263;61147;-24
2023/06/14 10:50:03;;;;;;;6.80;3.10;;;;;;;23.47;42.90;98853.64;105181;1262;61179;-23
2023/06/14 10:52:35;;;;;;;9.50;5.40;;;;;;;22.39;44.95;98848.91;105274;1263;72971;-22
2023/06/14 10:55:12;;;;;;;3.80;2.70;;;;;;;22.44;45.32;98846.60;105190;1262;73053;-22
2023/06/14 10:57:55;;;;;;;6.00;2.80;;;;;;;23.01;46.13;98854.21;105383;1263;71444;-23
2023/06/14 11:00:25;;;;;;;3.90;2.10;;;;;;;22.96;45.11;98857.39;105531;1263;61093;-23
2023/06/14 11:03:24;;;;;;;1.70;1.40;;;;;;;22.96;45.08;98855.99;105148;1264;61129;-23
2023/06/14 11:05:58;;;;;;;2.50;1.80;;;;;;;22.31;46.05;98860.89;105503;1258;72835;-23
2023/06/14 11:08:46;;;;;;;7.20;5.60;;;;;;;21.42;47.84;98861.80;105329;1260;74176;-24
2023/06/14 11:11:13;;;;;;;10.90;7.80;;;;;;;21.13;48.29;98860.39;105626;1260;72356;-23
2023/06/14 11:13:43;;;;;;;5.40;2.20;;;;;;;21.11;48.39;98864.45;105457;1263;61150;-22
2023/06/14 11:16:15;;;;;;;19.80;12.50;;;;;;;21.26;48.42;98862.29;105271;1263;61176;-22
2023/06/14 11:18:42;;;;;;;6.60;3.10;;;;;;;21.22;48.01;98864.52;105350;1263;71577;-23
2023/06/14 11:21:09;;;;;;;6.60;2.30;;;;;;;21.43;48.89;98865.64;105636;1264;74883;-22
2023/06/14 11:23:36;;;;;;;5.70;1.50;;;;;;;21.79;47.66;98868.17;105601;1260;73097;-23
2023/06/14 11:26:07;;;;;;;88.60;5.60;;;;;;;21.97;47.77;98867.36;105545;1257;61070;-23
2023/06/14 11:28:38;;;;;;;4.20;2.00;;;;;;;22.16;47.71;98865.91;105233;1274;61183;-22
2023/06/14 11:31:06;;;;;;;3.70;2.70;;;;;;;21.91;46.85;98866.50;105176;1257;73529;-23
2023/06/14 11:33:33;;;;;;;3.40;1.80;;;;;;;22.12;47.29;98863.56;105283;1264;74736;-24
2023/06/14 11:36:08;;;;;;;7.30;1.60;;;;;;;22.41;47.48;98865.13;105223;1264;72548;-23
2023/06/14 11:38:36;;;;;;;4.80;2.00;;;;;;;22.59;45.89;98861.48;105265;1260;61230;-23
2023/06/14 11:41:03;;;;;;;4.50;2.00;;;;;;;22.55;46.00;98861.16;105201;1257;61074;-23
2023/06/14 11:43:32;;;;;;;8.10;5.10;;;;;;;22.20;47.25;98861.15;105415;1260;73563;-23
2023/06/14 11:45:59;;;;;;;4.70;2.10;;;;;;;21.50;47.90;98861.84;105687;1260;73208;-23
2023/06/14 11:48:40;;;;;;;3.90;1.60;;;;;;;21.50;48.95;98862.67;105498;1263;72759;-24
2023/06/14 11:51:07;;;;;;;6.70;2.10;;;;;;;22.09;49.11;98861.20;105399;1258;61122;-24
2023/06/14 11:53:53;;;;;;;3.10;1.50;;;;;;;22.40;48.31;98861.05;105562;1260;61827;-24
2023/06/14 11:56:20;;;;;;;2.20;1.60;;;;;;;22.51;47.34;98860.99;105627;1262;73664;-23
2023/06/14 11:58:47;;;;;;;2.60;1.80;;;;;;;22.56;47.29;98857.88;105627;1261;74846;-23
2023/06/14 12:01:16;;;;;;;8.10;4.80;;;;;;;22.52;46.17;98859.27;105516;1263;72629;-23
2023/06/14 12:03:50;;;;;;;3.60;2.90;;;;;;;22.41;47.38;98857.94;105260;1258;61165;-24
2023/06/14 12:06:33;;;;;;;2.70;2.00;;;;;;;23.09;47.49;98859.40;105545;1258;61061;-24
2023/06/14 12:09:04;;;;;;;5.30;1.90;;;;;;;22.98;45.79;98861.34;105549;1263;72885;-24
2023/06/14 12:11:34;;;;;;;4.40;2.00;;;;;;;22.95;46.89;98858.40;105404;1264;74382;-24
2023/06/14 12:14:03;;;;;;;5.00;1.90;;;;;;;23.24;45.29;98859.27;105437;1263;71449;-24
2023/06/14 12:16:33;;;;;;;11.40;1.90;;;;;;;23.55;45.74;98859.20;105401;1256;61125;-24
2023/06/14 12:19:08;;;;;;;5.20;1.90;;;;;;;23.50;44.44;98859.41;105426;1264;61229;-24
2023/06/14 12:21:35;;;;;;;2.80;1.80;;;;;;;23.32;44.39;98859.27;105224;1257;73052;-24
2023/06/14 12:24:03;;;;;;;2.40;1.90;;;;;;;23.26;45.74;98858.25;105190;1264;74136;-24
2023/06/14 12:26:31;;;;;;;4.40;2.00;;;;;;;23.36;45.88;98860.48;105341;1263;72732;-23
2023/06/14 12:28:58;;;;;;;3.40;2.00;;;;;;;23.39;45.64;98857.45;105366;1258;61074;-24
2023/06/14 12:31:26;;;;;;;11.10;2.30;;;;;;;23.18;45.28;98859.33;105589;1260;61195;-23
2023/06/14 12:33:53;;;;;;;2.90;2.20;;;;;;;23.36;45.21;98857.38;105570;1263;72843;-24
2023/06/14 12:36:20;;;;;;;3.40;2.00;;;;;;;23.43;45.23;98851.04;105477;1257;74050;-24
2023/06/14 12:38:47;;;;;;;4.80;2.20;;;;;;;23.49;45.92;98850.18;105544;1260;72631;-24
2023/06/14 12:41:15;;;;;;;3.50;1.70;;;;;;;23.32;45.05;98853.58;105268;1257;61119;-24
2023/06/14 12:43:43;;;;;;;3.50;2.10;;;;;;;22.80;45.42;98853.77;105116;1264;61173;-24
2023/06/14 12:46:12;;;;;;;23.10;2.80;;;;;;;22.42;46.43;98856.00;105525;1260;72963;-23
2023/06/14 12:48:39;;;;;;;3.70;1.80;;;;;;;22.84;44.96;98857.23;105326;1258;74744;-23
2023/06/14 12:51:06;;;;;;;3.60;1.30;;;;;;;23.16;44.93;98852.77;105367;1260;71392;-24
2023/06/14 12:53:34;;;;;;;12.10;1.90;;;;;;;22.92;45.16;98853.56;105333;1258;61093;-24
2023/06/14 12:56:01;;;;;;;3.40;1.70;;;;;;;23.23;45.30;98848.13;105367;1270;61231;-24
2023/06/14 12:58:28;;;;;;;6.70;2.00;;;;;;;23.31;44.93;98844.83;105672;1260;72933;-24
2023/06/14 13:00:55;;;;;;;5.20;2.30;;;;;;;22.43;45.79;98849.06;105579;1264;74149;-23
2023/06/14 13:03:22;;;;;;;4.30;2.50;;;;;;;22.52;47.27;98848.54;105451;1263;72620;-24
2023/06/14 13:05:49;;;;;;;4.20;1.80;;;;;;;23.10;46.85;98849.48;105452;1260;61045;-24
2023/06/14 13:08:16;;;;;;;2.30;1.70;;;;;;;23.18;45.51;98846.27;105380;1259;61239;-23
2023/06/14 13:10:43;;;;;;;1.90;1.50;;;;;;;23.20;45.50;98847.31;105515;1258;72855;-23
2023/06/14 13:13:12;;;;;;;7.60;2.50;;;;;;;23.27;46.17;98850.41;105535;1257;74232;-24
2023/06/14 13:15:40;;;;;;;4.30;1.80;;;;;;;23.17;45.15;98856.64;105393;1260;72468;-23
2023/06/14 13:18:07;;;;;;;3.50;1.80;;;;;;;23.19;46.07;98854.45;105511;1257;61061;-24
2023/06/14 13:20:34;;;;;;;2.30;1.70;;;;;;;23.15;46.51;98856.82;105325;1257;61166;-23
2023/06/14 13:23:03;;;;;;;4.40;1.50;;;;;;;23.09;46.58;98857.05;105629;1257;73010;-24
2023/06/14 13:25:30;;;;;;;4.10;1.50;;;;;;;23.09;45.99;98858.11;105552;1262;74361;-23
2023/06/14 13:27:57;;;;;;;3.60;2.00;;;;;;;23.05;47.27;98861.48;105553;1260;73189;-24
2023/06/14 13:30:24;;;;;;;3.40;1.90;;;;;;;23.02;45.50;98861.04;105300;1259;61085;-24
2023/06/14 13:32:52;;;;;;;5.00;1.90;;;;;;;23.03;45.88;98859.23;105367;1260;61147;-24
2023/06/14 13:35:19;;;;;;;4.10;1.90;;;;;;;22.89;45.34;98857.29;105227;1258;73937;-24
2023/06/14 13:37:46;;;;;;;1.90;1.50;;;;;;;22.82;45.58;98858.79;105462;1260;74321;-23
2023/06/14 13:40:13;;;;;;;3.40;1.30;;;;;;;22.96;46.08;98857.09;105344;1266;72499;-23
2023/06/14 13:42:40;;;;;;;12.30;2.10;;;;;;;22.98;46.45;98854.26;105473;1258;61115;-23
2023/06/14 13:45:08;;;;;;;4.20;1.70;;;;;;;22.95;46.06;98851.92;105469;1260;61195;-23
2023/06/14 13:47:35;;;;;;;6.40;1.80;;;;;;;22.87;45.46;98854.16;105442;1257;73651;-23
2023/06/14 13:50:03;;;;;;;6.10;2.30;;;;;;;22.56;45.33;98853.77;105626;1257;74723;-23
2023/06/14 13:52:31;;;;;;;2.00;1.50;;;;;;;22.83;45.75;98851.68;105425;1264;72531;-23
2023/06/14 13:54:58;;;;;;;4.30;2.40;;;;;;;23.02;44.59;98857.43;105603;1257;61049;-23
2023/06/14 13:57:25;;;;;;;1.50;1.40;;;;;;;22.89;44.52;98859.39;105618;1260;61272;-23
2023/06/14 13:59:55;;;;;;;6.50;1.60;;;;;;;22.25;45.71;98859.55;105572;1258;73577;-23
2023/06/14 14:02:22;;;;;;;2.80;1.60;;;;;;;22.67;46.34;98858.55;105577;1263;74300;-23
2023/06/14 14:04:53;;;;;;;3.40;1.60;;;;;;;22.68;46.08;98855.03;105627;1257;72592;-24
2023/06/14 14:07:22;;;;;;;3.40;1.70;;;;;;;22.71;46.56;98852.61;105582;1257;61227;-23
2023/06/14 14:09:49;;;;;;;3.20;2.10;;;;;;;22.43;45.82;98851.02;105633;1260;61180;-23
2023/06/14 14:12:16;;;;;;;3.60;3.10;;;;;;;22.03;46.27;98852.52;105636;1258;73812;-23
2023/06/14 14:14:43;;;;;;;5.50;2.30;;;;;;;22.71;45.43;98850.25;105630;1257;74902;-23
2023/06/14 14:17:10;;;;;;;3.20;2.90;;;;;;;23.10;45.06;98844.12;105419;1260;72377;-23
2023/06/14 14:19:37;;;;;;;3.60;2.10;;;;;;;23.17;45.33;98851.66;105382;1258;60995;-23
2023/06/14 14:22:05;;;;;;;2.40;1.80;;;;;;;23.45;44.52;98850.73;105387;1264;61907;-23
2023/06/14 14:24:32;;;;;;;2.40;1.40;;;;;;;23.64;43.83;98848.91;105391;1263;73901;-23
2023/06/14 14:27:00;;;;;;;2.20;1.50;;;;;;;23.75;44.84;98851.71;105452;1260;74288;-23
2023/06/14 14:29:29;;;;;;;3.20;1.40;;;;;;;24.08;43.93;98848.48;105414;1258;72663;-23
2023/06/14 14:31:56;;;;;;;3.90;1.50;;;;;;;24.14;43.24;98845.37;105308;1258;61141;-23
2023/06/14 14:34:26;;;;;;;4.70;1.70;;;;;;;23.93;43.96;98847.09;105491;1260;61323;-23
2023/06/14 14:36:53;;;;;;;4.30;1.90;;;;;;;23.37;44.53;98847.36;105329;1260;73851;-23
2023/06/14 14:39:20;;;;;;;4.60;1.60;;;;;;;23.05;44.94;98850.89;105479;1260;74436;-23
2023/06/14 14:41:47;;;;;;;5.50;1.80;;;;;;;23.28;46.36;98847.59;105485;1258;72705;-23
2023/06/14 14:44:14;;;;;;;4.10;1.60;;;;;;;23.34;45.74;98842.73;105611;1258;61142;-23
2023/06/14 14:46:44;;;;;;;5.30;1.80;;;;;;;23.08;46.51;98845.73;105413;1262;61288;-23
2023/06/14 14:49:11;;;;;;;7.30;2.20;;;;;;;22.21;46.63;98845.39;105480;1262;73828;-23
2023/06/14 14:51:39;;;;;;;5.60;2.60;;;;;;;22.08;46.79;98847.25;105609;1260;74275;-23
2023/06/14 14:54:06;;;;;;;14.60;7.90;;;;;;;21.60;48.78;98846.56;105511;1258;72773;-23
2023/06/14 14:56:35;;;;;;;2.60;1.80;;;;;;;21.67;47.67;98844.66;105462;1258;61284;-23
2023/06/14 14:59:02;;;;;;;3.50;3.00;;;;;;;21.41;47.68;98846.20;105283;1259;61180;-23
2023/06/14 15:01:29;;;;;;;2.90;1.70;;;;;;;21.51;47.87;98848.02;105629;1254;73864;-23
2023/06/14 15:03:57;;;;;;;3.60;2.10;;;;;;;21.35;48.23;98847.00;105535;1254;74454;-23
2023/06/14 15:06:26;;;;;;;3.70;1.40;;;;;;;21.60;49.34;98849.24;105544;1254;73260;-23
2023/06/14 15:08:53;;;;;;;2.50;1.70;;;;;;;21.55;47.62;98847.13;105538;1254;61030;-23
2023/06/14 15:11:21;;;;;;;10.50;7.50;;;;;;;21.19;48.32;98846.27;105628;1256;61145;-23